Latest Weather Observations for Yampi Sound (Defence)

IDW60801

Issued at 1:23 pm WST Monday 30 March 2020 (issued every 10 minutes, with the page automatically refreshed every 10 minutes)

About weather observations | Map of weather stations | Latest weather observations for WA | Other Formats
Station Details ID: 003108 Name: YAMPI SOUND (DEFENCE) Lat: -16.77 Lon: 123.98 Height: 41.33 m
Data from the previous 72 hours. | See also: Recent months at Yampi Sound (Defence)
Date/Time
WST
Temp
°C
App
Temp
°C
Dew
Point
°C
Rel
Hum
%
Delta-T
°C
Wind Press
QNH
hPa
Press
MSL
hPa
Rain since
9am
mm
Dir  Spd
km/h
Gust
km/h
Spd
kts
Gust
kts
30/01:00pm 38.0 37.7 14.5 24 14.7 WSW 9 17 5 9 1011.5 - 0.0
30/12:30pm 38.0 37.4 14.5 24 14.7 WSW 11 19 6 10 1011.9 - 0.0
30/12:00pm 37.4 36.9 15.8 27 13.7 WSW 13 19 7 10 1012.3 - 0.0
30/11:30am 37.1 38.5 18.6 33 12.2 W 9 15 5 8 1012.8 - 0.0
30/11:00am 36.8 40.3 22.2 43 10.1 WSW 7 15 4 8 1013.4 - 0.0
30/10:30am 35.4 39.2 22.4 47 9.0 NW 6 9 3 5 1014.0 - 0.0
30/10:00am 34.8 39.6 24.4 54 7.3 SW 7 13 4 7 1014.4 - 0.0
30/09:30am 34.1 39.6 24.1 56 7.0 SW 2 6 1 3 1014.8 - 0.0
30/09:00am 34.0 37.8 22.4 50 8.0 W 6 7 3 4 1014.8 - 0.0
30/08:30am 32.7 38.2 24.7 62 5.6 W 4 7 2 4 1014.9 - 0.0
30/08:00am 31.7 37.9 25.8 71 4.2 E 4 6 2 3 1014.6 - 0.0
30/07:30am 30.7 37.9 27.3 82 2.5 NNE 4 6 2 3 1014.2 - 0.0
30/07:00am 29.1 36.6 27.1 89 1.4 NNE 2 4 1 2 1013.7 - 0.0
30/06:30am 26.8 34.0 26.1 96 0.5 CALM 0 2 0 1 1013.4 - 0.0
30/06:00am 25.9 32.5 25.2 96 0.5 CALM 0 0 0 0 1013.1 - 0.0
30/05:30am 26.1 32.7 25.2 95 0.6 CALM 0 0 0 0 1012.7 - 0.0
30/05:00am 26.3 32.9 25.3 94 0.7 CALM 0 0 0 0 1012.4 - 0.0
30/04:30am 26.5 33.1 25.3 93 0.8 CALM 0 0 0 0 1012.3 - 0.0
30/04:00am 27.0 33.6 25.2 90 1.3 CALM 0 0 0 0 1012.1 - 0.0
30/03:30am 27.2 33.8 25.2 89 1.4 CALM 0 0 0 0 1012.0 - 0.0
30/03:00am 27.0 33.2 25.2 90 1.3 NNW 2 6 1 3 1012.0 - 0.0
30/02:30am 26.8 32.9 24.5 87 1.6 CALM 0 0 0 0 1011.8 - 0.0
30/02:00am 27.2 33.3 24.5 85 1.9 CALM 0 0 0 0 1011.6 - 0.0
30/01:30am 27.4 33.5 24.5 84 2.0 CALM 0 0 0 0 1011.5 - 0.0
30/01:00am 27.8 33.8 24.2 81 2.5 CALM 0 0 0 0 1011.6 - 0.0
30/12:30am 28.5 34.3 23.9 76 3.2 CALM 0 0 0 0 1011.9 - 0.0
30/12:00am 28.9 34.5 23.6 73 3.7 CALM 0 0 0 0 1012.1 - 0.0
 
Date/Time
WST
Temp
°C
App
Temp
°C
Dew
Point
°C
Rel
Hum
%
Delta-T
°C
Wind Press
QNH
hPa
Press
MSL
hPa
Rain since
9am
mm
Dir  Spd
km/h
Gust
km/h
Spd
kts
Gust
kts
29/11:30pm 29.1 34.9 24.0 74 3.5 CALM 0 0 0 0 1012.3 - 0.0
29/11:00pm 29.5 35.0 23.4 69 4.2 CALM 0 0 0 0 1012.6 - 0.0
29/10:30pm 30.1 34.9 22.8 65 5.0 NE 2 6 1 3 1012.8 - 0.0
29/10:00pm 30.1 35.4 23.0 65 4.9 CALM 0 0 0 0 1013.0 - 0.0
29/09:30pm 30.2 35.3 22.6 63 5.2 CALM 0 0 0 0 1013.0 - 0.0
29/09:00pm 30.8 34.7 21.9 59 6.0 SSW 4 7 2 4 1013.2 - 0.0
29/08:30pm 30.5 34.5 21.3 58 6.2 SE 2 6 1 3 1012.7 - 0.0
29/08:00pm 30.6 34.6 21.4 58 6.2 NW 2 4 1 2 1012.5 - 0.0
29/07:30pm 30.7 34.1 20.9 56 6.5 SW 4 9 2 5 1012.4 - 0.0
29/07:00pm 31.6 33.7 20.2 50 7.6 ESE 9 19 5 10 1012.9 - 0.0
29/06:30pm 30.2 35.4 22.9 65 5.0 CALM 0 4 0 2 1011.9 - 0.0
29/06:00pm 30.5 34.5 22.1 61 5.7 N 4 6 2 3 1011.2 - 0.0
29/05:30pm 31.6 34.6 20.8 52 7.2 N 6 9 3 5 1011.1 - 0.0
29/05:00pm 33.8 36.5 19.5 43 9.5 W 4 6 2 3 1010.9 - 0.0
29/04:30pm 35.3 36.8 17.5 34 11.5 W 6 9 3 5 1010.9 - 0.0
29/04:00pm 36.3 36.2 15.9 29 12.9 WSW 11 17 6 9 1010.8 - 0.0
29/03:30pm 37.0 37.3 17.1 31 12.9 WSW 11 19 6 10 1010.5 - 0.0
29/03:00pm 37.0 37.2 18.5 33 12.2 W 15 22 8 12 1010.2 - 0.0
29/02:30pm 37.1 37.7 18.6 33 12.2 W 13 20 7 11 1010.5 - 0.0
29/02:00pm 37.3 38.6 20.1 36 11.6 WSW 13 20 7 11 1011.0 - 0.0
29/01:30pm 37.5 39.1 20.8 38 11.3 WSW 13 20 7 11 1011.3 - 0.0
29/01:00pm 37.7 39.6 20.5 36 11.6 SW 11 17 6 9 1011.6 - 0.0
29/12:30pm 37.2 39.3 20.9 38 11.1 SW 11 17 6 9 1011.8 - 0.0
29/12:00pm 36.8 40.7 23.6 46 9.3 SW 9 17 5 9 1012.2 - 0.0
29/11:30am 36.5 40.1 23.0 45 9.4 SSW 9 15 5 8 1012.7 - 0.0
29/11:00am 35.9 40.5 24.2 51 8.3 SW 7 15 4 8 1013.2 - 0.0
29/10:30am 35.8 40.4 24.1 51 8.2 SW 7 15 4 8 1013.6 - 0.0
29/10:00am 35.0 40.1 24.6 55 7.4 SW 6 9 3 5 1013.9 - 0.0
29/09:30am 34.4 39.5 24.6 56 6.9 SW 6 9 3 5 1014.2 - 0.0
29/09:00am 33.7 39.1 25.4 62 5.9 WSW 7 9 4 5 1014.3 - 0.0
29/08:30am 32.4 39.2 26.7 72 4.1 WSW 4 7 2 4 1014.3 - 0.0
29/08:00am 32.0 38.5 26.8 74 3.8 WSW 6 9 3 5 1014.1 - 0.0
29/07:30am 31.8 39.0 27.3 77 3.3 WSW 4 7 2 4 1014.0 - 0.0
29/07:00am 29.7 37.6 27.7 89 1.5 NE 2 4 1 2 1013.9 - 0.0
29/06:30am 28.2 36.0 27.0 93 0.9 CALM 0 0 0 0 1013.7 - 0.0
29/06:00am 27.6 35.0 26.4 93 0.9 CALM 0 0 0 0 1013.4 - 0.0
29/05:30am 27.6 35.0 26.4 93 0.9 CALM 0 0 0 0 1012.9 - 0.0
29/05:00am 27.4 34.6 26.2 93 0.9 CALM 0 0 0 0 1012.5 - 0.0
29/04:30am 27.2 34.3 26.0 93 0.8 CALM 0 0 0 0 1012.2 - 0.0
29/04:00am 27.6 34.6 25.8 90 1.3 CALM 0 0 0 0 1011.9 - 0.0
29/03:30am 27.9 34.9 25.9 89 1.4 CALM 0 0 0 0 1011.9 - 0.0
29/03:00am 28.1 35.1 25.9 88 1.6 CALM 0 0 0 0 1011.8 - 0.0
29/02:30am 28.4 34.7 26.0 87 1.7 E 4 6 2 3 1011.8 - 0.0
29/02:00am 28.3 35.2 25.7 86 1.8 CALM 0 0 0 0 1012.0 - 0.0
29/01:30am 28.1 34.9 25.5 86 1.8 CALM 0 0 0 0 1011.9 - 0.0
29/01:00am 27.9 34.4 25.1 85 2.0 CALM 0 0 0 0 1012.1 - 0.0
29/12:30am 27.7 34.1 24.9 85 2.0 CALM 0 0 0 0 1012.1 - 0.0
29/12:00am 28.0 33.8 24.6 82 2.4 NE 2 6 1 3 1012.3 - 0.0
 
Date/Time
WST
Temp
°C
App
Temp
°C
Dew
Point
°C
Rel
Hum
%
Delta-T
°C
Wind Press
QNH
hPa
Press
MSL
hPa
Rain since
9am
mm
Dir  Spd
km/h
Gust
km/h
Spd
kts
Gust
kts
28/11:30pm 28.5 33.6 24.1 77 3.0 NE 4 6 2 3 1012.5 - 0.0
28/11:00pm 29.9 37.3 26.5 82 2.4 CALM 0 2 0 1 1012.4 - 0.0
28/10:30pm 30.0 37.0 26.4 81 2.6 W 2 6 1 3 1012.7 - 0.0
28/10:00pm 30.3 37.1 26.2 79 2.9 WNW 2 6 1 3 1012.7 - 0.0
28/09:30pm 30.6 36.8 26.3 78 3.1 WNW 6 11 3 6 1012.8 - 0.0
28/09:00pm 30.2 36.5 25.9 78 3.1 WNW 4 11 2 6 1012.7 - 0.0
28/08:30pm 29.8 35.1 23.0 67 4.7 CALM 0 0 0 0 1012.8 - 0.0
28/08:00pm 30.3 34.9 21.7 60 5.8 CALM 0 0 0 0 1012.5 - 0.0
28/07:30pm 30.2 34.3 20.7 56 6.3 CALM 0 2 0 1 1012.3 - 0.0
28/07:00pm 30.3 33.3 20.0 54 6.8 NNW 4 9 2 5 1011.7 - 0.0
28/06:30pm 30.7 33.8 19.4 51 7.4 WNW 2 6 1 3 1012.2 - 0.0
28/06:00pm 32.0 32.4 18.9 45 8.5 ENE 15 28 8 15 1012.4 - 0.0
28/05:30pm 33.6 38.9 23.0 54 7.3 CALM 0 2 0 1 1011.2 - 0.0
28/05:00pm 35.0 38.8 21.6 45 9.1 WSW 4 7 2 4 1010.6 - 0.0
28/04:30pm 36.0 39.1 21.1 42 10.1 WSW 6 9 3 5 1010.6 - 0.0
28/04:00pm 37.3 39.7 20.1 36 11.6 WSW 7 13 4 7 1010.4 - 0.0
28/03:30pm 37.6 39.7 19.0 33 12.3 WSW 6 9 3 5 1010.2 - 0.0
28/03:00pm 37.5 39.8 19.9 35 11.8 SW 7 13 4 7 1010.7 - 0.0
28/02:30pm 37.4 40.1 20.7 38 11.3 SW 7 13 4 7 1011.1 - 0.0
28/02:00pm 37.0 39.5 20.3 37 11.3 W 7 17 4 9 1011.5 - 0.0
28/01:30pm 36.9 39.4 20.2 37 11.2 WSW 7 17 4 9 1011.9 - 0.0
28/01:00pm 37.0 39.2 20.3 37 11.3 WSW 9 17 5 9 1012.4 - 0.0
28/12:30pm 37.1 38.3 19.1 35 11.9 WSW 11 19 6 10 1012.8 - 0.0
28/12:00pm 36.5 37.9 20.3 38 10.9 WSW 13 19 7 10 1013.3 - 0.0
28/11:30am 36.3 38.0 20.1 38 10.9 SW 11 17 6 9 1013.9 - 0.0
28/11:00am 35.4 38.4 22.0 45 9.2 W 9 17 5 9 1014.4 - 0.0
28/10:30am 35.7 38.5 21.5 43 9.7 WSW 9 19 5 10 1014.9 - 0.0
28/10:00am 34.3 37.3 22.7 50 8.0 W 11 17 6 9 1015.3 - 0.0
28/09:30am 34.3 38.6 23.6 53 7.5 W 7 19 4 10 1015.7 - 0.0
28/09:00am 33.6 37.1 23.6 56 7.0 W 11 19 6 10 1016.0 - 0.0
28/08:30am 33.0 37.4 24.5 61 6.0 W 9 15 5 8 1016.1 - 0.0
28/08:00am 32.0 37.5 25.3 67 4.7 WNW 6 11 3 6 1016.1 - 0.0
28/07:30am 31.0 38.0 26.5 77 3.2 NW 2 4 1 2 1015.9 - 0.0
28/07:00am 29.7 37.4 26.9 85 2.0 CALM 0 2 0 1 1015.7 - 0.0
28/06:30am 28.7 36.7 27.3 92 1.0 CALM 0 2 0 1 1015.3 - 0.0
28/06:00am 27.7 34.8 26.6 94 0.8 NNE 2 4 1 2 1014.8 - 0.0
28/05:30am 27.9 35.5 26.8 94 0.8 CALM 0 0 0 0 1014.2 - 0.0
28/05:00am 28.2 35.8 26.8 92 1.0 CALM 0 0 0 0 1013.8 - 0.0
28/04:30am 28.6 35.5 26.8 90 1.3 NNE 4 4 2 2 1013.7 - 0.0
28/04:00am 28.6 35.2 27.0 91 1.1 NNE 6 11 3 6 1013.4 - 0.0
28/03:30am 28.5 36.1 26.7 90 1.3 CALM 0 0 0 0 1013.9 - 0.0
28/03:00am 28.6 36.1 26.6 89 1.4 CALM 0 0 0 0 1014.1 - 0.0
28/02:30am 28.6 35.1 26.2 87 1.7 NNE 4 4 2 2 1013.9 - 0.0
28/02:00am 29.3 35.7 26.1 83 2.3 NNW 4 7 2 4 1013.9 - 0.0
28/01:30am 29.9 35.9 26.1 80 2.7 NNW 6 11 3 6 1014.0 - 0.0
28/01:00am 29.9 35.6 26.5 82 2.4 NNW 9 17 5 9 1014.1 - 0.0
28/12:30am 29.9 36.3 26.9 84 2.2 NNW 7 11 4 6 1014.3 - 0.0
28/12:00am 28.8 36.1 26.8 89 1.4 N 2 9 1 5 1014.6 - 0.0
 
Date/Time
WST
Temp
°C
App
Temp
°C
Dew
Point
°C
Rel
Hum
%
Delta-T
°C
Wind Press
QNH
hPa
Press
MSL
hPa
Rain since
9am
mm
Dir  Spd
km/h
Gust
km/h
Spd
kts
Gust
kts
27/11:30pm 29.2 35.6 26.6 86 1.9 N 6 13 3 7 1014.6 - 0.0
27/11:00pm 28.9 35.6 26.5 87 1.7 N 4 7 2 4 1014.7 - 0.0
27/10:30pm 29.2 35.4 25.8 82 2.4 NNE 4 6 2 3 1014.6 - 0.0
27/10:00pm 30.0 37.2 26.2 80 2.7 CALM 0 0 0 0 1014.3 - 0.0
27/09:30pm 30.7 37.3 26.4 78 3.1 WNW 4 9 2 5 1014.1 - 0.0
27/09:00pm 30.9 37.2 25.9 74 3.6 WNW 4 7 2 4 1014.0 - 0.0
27/08:30pm 31.2 36.2 24.8 69 4.5 WSW 7 17 4 9 1013.6 - 0.0
27/08:00pm 31.2 36.1 23.0 61 5.6 WSW 2 9 1 5 1013.3 - 0.0
27/07:30pm 31.1 35.6 23.0 62 5.6 SW 4 6 2 3 1013.1 - 0.0
27/07:00pm 32.0 36.3 22.7 58 6.4 WSW 4 6 2 3 1012.7 - 0.0
27/06:30pm 32.1 36.0 22.5 57 6.6 SW 6 9 3 5 1012.3 - 0.0
27/06:00pm 32.6 36.6 22.7 56 6.8 WSW 6 9 3 5 1012.1 - 0.0
27/05:30pm 33.3 36.9 23.0 54 7.1 WSW 9 13 5 7 1011.8 - 0.0
27/05:00pm 34.2 38.7 23.9 55 7.2 SW 7 11 4 6 1011.3 - 0.0
27/04:30pm 35.1 38.6 22.8 49 8.5 WSW 9 15 5 8 1011.4 - 0.0
27/04:00pm 36.9 40.5 23.7 46 9.3 WSW 11 17 6 9 1011.3 - 0.0
27/03:30pm 37.4 41.7 24.2 47 9.3 W 9 13 5 7 1011.3 - 0.0
27/03:00pm 37.4 41.3 24.2 47 9.3 W 11 15 6 8 1011.5 - 0.0
27/02:30pm 37.3 41.9 24.8 49 8.9 WSW 9 17 5 9 1011.7 - 0.0
27/02:00pm 38.5 41.9 21.6 37 11.6 WNW 6 11 3 6 1011.8 - 0.0
27/01:30pm 37.8 41.4 23.8 44 9.9 SW 11 17 6 9 1012.2 - 0.0

Other formats

Comma delimited format used in spreadsheet applications
http://www.bom.gov.au/fwo/IDW60801/IDW60801.95208.axf

JavaScript Object Notation format (JSON) in row-major order
http://www.bom.gov.au/fwo/IDW60801/IDW60801.95208.json

Data quality

Most of these data are generated automatically and are frequently updated. Quality checks on data are not normally performed. It is possible for incorrect values to appear. Refer to information at About Latest Weather Observations and please check the disclaimer before using these data.